createdAt,value
2023-05-02T00:01:20.452Z,98961.23
2023-05-02T00:03:47.826Z,98961.36
2023-05-02T00:06:14.994Z,98960.23
2023-05-02T00:08:42.052Z,98955.79
2023-05-02T00:11:09.040Z,98956.86
2023-05-02T00:13:36.205Z,98954.38
2023-05-02T00:16:03.332Z,98954.90
2023-05-02T00:18:30.643Z,98955.77
2023-05-02T00:20:57.558Z,98958.58
2023-05-02T00:23:24.536Z,98956.67
2023-05-02T00:25:51.547Z,98954.70
2023-05-02T00:28:19.197Z,98952.61
2023-05-02T00:30:46.959Z,98955.91
2023-05-02T00:33:15.320Z,98956.34
2023-05-02T00:35:42.425Z,98957.12
2023-05-02T00:38:09.436Z,98958.84
2023-05-02T00:40:46.643Z,98956.08
2023-05-02T00:43:14.388Z,98953.53
2023-05-02T00:45:42.361Z,98956.41
2023-05-02T00:48:09.727Z,98953.20
2023-05-02T00:50:41.867Z,98959.56
2023-05-02T00:53:09.682Z,98955.95
2023-05-02T00:55:37.214Z,98953.67
2023-05-02T00:58:12.128Z,98953.23
2023-05-02T01:01:27.275Z,98952.07
2023-05-02T01:04:04.136Z,98949.69
2023-05-02T01:06:43.570Z,98953.61
2023-05-02T01:09:32.345Z,98950.70
2023-05-02T01:12:05.540Z,98950.19
2023-05-02T01:14:41.192Z,98953.59
2023-05-02T01:17:10.272Z,98950.41
2023-05-02T01:19:41.688Z,98950.67
2023-05-02T01:22:09.981Z,98947.01
2023-05-02T01:24:44.782Z,98944.73
2023-05-02T01:27:19.096Z,98944.38
2023-05-02T01:29:46.306Z,98946.10
2023-05-02T01:32:13.276Z,98944.88
2023-05-02T01:34:40.865Z,98940.55
2023-05-02T01:37:08.236Z,98942.37
2023-05-02T01:39:36.048Z,98937.88
2023-05-02T01:42:03.783Z,98938.89
2023-05-02T01:44:31.397Z,98936.68
2023-05-02T01:46:59.026Z,98936.75
2023-05-02T01:49:26.968Z,98935.39
2023-05-02T01:51:53.873Z,98931.39
2023-05-02T01:54:21.928Z,98925.42
2023-05-02T01:56:49.383Z,98926.38
2023-05-02T01:59:20.023Z,98925.89
2023-05-02T02:01:47.880Z,98928.24
2023-05-02T02:04:15.802Z,98925.88
2023-05-02T02:06:46.300Z,98925.08
2023-05-02T02:09:14.344Z,98924.10
2023-05-02T02:11:49.605Z,98921.61
2023-05-02T02:14:21.814Z,98928.86
2023-05-02T02:16:49.180Z,98935.17
2023-05-02T02:19:16.365Z,98936.42
2023-05-02T02:21:44.000Z,98936.93
2023-05-02T02:24:11.024Z,98936.42
2023-05-02T02:26:38.211Z,98936.89
2023-05-02T02:29:05.409Z,98936.37
2023-05-02T02:31:36.050Z,98935.66
2023-05-02T02:34:03.462Z,98936.04
2023-05-02T02:36:36.884Z,98939.02
2023-05-02T02:39:07.894Z,98940.02
2023-05-02T02:41:46.026Z,98940.83
2023-05-02T02:44:34.169Z,98938.70
2023-05-02T02:47:12.319Z,98930.80
2023-05-02T02:49:40.186Z,98925.77
2023-05-02T02:52:25.859Z,98922.77
2023-05-02T02:54:56.803Z,98920.25
2023-05-02T02:57:28.266Z,98923.23
2023-05-02T03:00:04.225Z,98924.23
2023-05-02T03:02:32.862Z,98931.50
2023-05-02T03:05:00.592Z,98930.42
2023-05-02T03:07:28.397Z,98931.34
2023-05-02T03:09:55.669Z,98934.52
2023-05-02T03:12:22.940Z,98928.53
2023-05-02T03:14:50.355Z,98931.90
2023-05-02T03:17:17.443Z,98933.23
2023-05-02T03:19:44.541Z,98930.39
2023-05-02T03:22:12.431Z,98932.15
2023-05-02T03:24:40.048Z,98933.04
2023-05-02T03:27:07.589Z,98937.05
2023-05-02T03:29:38.181Z,98936.08
2023-05-02T03:32:05.986Z,98936.84
2023-05-02T03:34:33.488Z,98935.34
2023-05-02T03:37:01.098Z,98940.29
2023-05-02T03:39:28.800Z,98942.20
2023-05-02T03:41:56.160Z,98944.52
2023-05-02T03:44:23.336Z,98944.42
2023-05-02T03:46:50.761Z,98945.45
2023-05-02T03:49:19.729Z,98941.17
2023-05-02T03:51:46.879Z,98949.13
2023-05-02T03:54:14.478Z,98951.26
2023-05-02T03:56:42.956Z,98958.91
2023-05-02T03:59:19.686Z,98961.21
2023-05-02T04:01:50.750Z,98955.26
2023-05-02T04:04:21.420Z,98958.25
2023-05-02T04:06:52.037Z,98960.03
2023-05-02T04:09:23.614Z,98960.94
2023-05-02T04:11:54.280Z,98962.08
2023-05-02T04:14:21.527Z,98962.61
2023-05-02T04:16:50.370Z,98960.38
2023-05-02T04:19:21.754Z,98963.27
2023-05-02T04:21:48.921Z,98961.61
2023-05-02T04:24:16.404Z,98965.52
2023-05-02T04:26:43.446Z,98960.18
2023-05-02T04:29:13.624Z,98953.56
2023-05-02T04:31:41.342Z,98957.12
2023-05-02T04:34:09.555Z,98951.02
2023-05-02T04:36:42.024Z,98949.89
2023-05-02T04:39:10.824Z,98948.96
2023-05-02T04:41:41.785Z,98946.38
2023-05-02T04:44:09.296Z,98949.42
2023-05-02T04:46:37.141Z,98946.79
2023-05-02T04:49:04.123Z,98945.98
2023-05-02T04:51:31.995Z,98945.11
2023-05-02T04:53:59.533Z,98941.47
2023-05-02T04:56:27.048Z,98944.97
2023-05-02T04:58:54.394Z,98947.23
2023-05-02T05:01:22.120Z,98944.42
2023-05-02T05:03:49.368Z,98945.09
2023-05-02T05:06:19.405Z,98946.87
2023-05-02T05:08:48.835Z,98947.02
2023-05-02T05:11:16.325Z,98946.17
2023-05-02T05:13:44.078Z,98941.15
2023-05-02T05:16:12.501Z,98942.46
2023-05-02T05:18:42.577Z,98943.11
2023-05-02T05:21:12.164Z,98947.39
2023-05-02T05:23:39.926Z,98947.08
2023-05-02T05:26:11.321Z,98947.07
2023-05-02T05:28:40.015Z,98943.14
2023-05-02T05:31:08.490Z,98941.30
2023-05-02T05:33:35.876Z,98938.80
2023-05-02T05:36:17.644Z,98936.86
2023-05-02T05:38:45.569Z,98936.37
2023-05-02T05:41:12.702Z,98934.77
2023-05-02T05:43:44.198Z,98930.03
2023-05-02T05:46:11.732Z,98930.83
2023-05-02T05:48:38.984Z,98926.80
2023-05-02T05:51:06.404Z,98924.64
2023-05-02T05:53:33.975Z,98924.83
2023-05-02T05:56:12.525Z,98925.36
2023-05-02T05:58:44.282Z,98924.55
2023-05-02T06:01:13.241Z,98927.88
2023-05-02T06:03:40.921Z,98928.56
2023-05-02T06:06:08.298Z,98926.33
2023-05-02T06:08:35.619Z,98929.73
2023-05-02T06:11:02.653Z,98929.08
2023-05-02T06:13:29.791Z,98925.40
2023-05-02T06:16:01.634Z,98928.84
2023-05-02T06:18:30.327Z,98926.19
2023-05-02T06:20:57.693Z,98921.23
2023-05-02T06:23:24.993Z,98924.48
2023-05-02T06:25:52.058Z,98922.11
2023-05-02T06:28:19.316Z,98920.89
2023-05-02T06:30:46.332Z,98923.88
2023-05-02T06:33:13.712Z,98926.38
2023-05-02T06:35:41.121Z,98925.88
2023-05-02T06:38:08.231Z,98927.65
2023-05-02T06:40:37.712Z,98923.81
2023-05-02T06:43:05.532Z,98924.60
2023-05-02T06:45:32.544Z,98925.89
2023-05-02T06:47:59.553Z,98922.46
2023-05-02T06:50:26.683Z,98919.21
2023-05-02T06:52:53.637Z,98918.32
2023-05-02T06:55:21.196Z,98916.58
2023-05-02T06:57:51.459Z,98919.20
2023-05-02T07:00:18.980Z,98918.79
2023-05-02T07:02:47.523Z,98921.70
2023-05-02T07:05:15.782Z,98919.73
2023-05-02T07:07:43.869Z,98920.65
2023-05-02T07:10:11.463Z,98924.24
2023-05-02T07:12:39.611Z,98925.62
2023-05-02T07:15:07.306Z,98920.89
2023-05-02T07:17:35.243Z,98917.88
2023-05-02T07:20:02.594Z,98920.63
2023-05-02T07:22:30.152Z,98920.48
2023-05-02T07:24:58.744Z,98916.86
2023-05-02T07:27:25.897Z,98916.41
2023-05-02T07:29:53.965Z,98918.77
2023-05-02T07:32:22.015Z,98915.02
2023-05-02T07:34:49.188Z,98917.98
2023-05-02T07:37:16.299Z,98913.14
2023-05-02T07:39:43.311Z,98912.25
2023-05-02T07:42:10.368Z,98914.39
2023-05-02T07:44:37.455Z,98911.71
2023-05-02T07:47:04.457Z,98914.35
2023-05-02T07:49:31.672Z,98913.58
2023-05-02T07:51:58.648Z,98916.07
2023-05-02T07:54:26.555Z,98914.59
2023-05-02T07:56:54.349Z,98912.95
2023-05-02T07:59:21.323Z,98914.03
2023-05-02T08:01:48.583Z,98916.55
2023-05-02T08:04:16.114Z,98918.79
2023-05-02T08:06:45.006Z,98920.06
2023-05-02T08:09:12.080Z,98917.06
2023-05-02T08:11:39.228Z,98919.73
2023-05-02T08:14:06.672Z,98919.69
2023-05-02T08:16:33.845Z,98925.00
2023-05-02T08:19:01.145Z,98924.55
2023-05-02T08:21:32.226Z,98927.85
2023-05-02T08:23:59.358Z,98926.82
2023-05-02T08:26:27.014Z,98924.81
2023-05-02T08:28:55.728Z,98922.01
2023-05-02T08:31:22.790Z,98918.65
2023-05-02T08:33:49.990Z,98920.09
2023-05-02T08:36:17.964Z,98921.08
2023-05-02T08:38:45.690Z,98918.04
2023-05-02T08:41:19.795Z,98913.46
2023-05-02T08:43:46.957Z,98904.85
2023-05-02T08:46:16.156Z,98903.98
2023-05-02T08:48:44.631Z,98902.71
2023-05-02T08:51:13.731Z,98899.48
2023-05-02T08:53:41.163Z,98898.89
2023-05-02T08:56:08.974Z,98897.55
2023-05-02T08:58:37.543Z,98891.50
2023-05-02T09:01:15.914Z,98891.39
2023-05-02T09:03:47.123Z,98883.02
2023-05-02T09:06:16.270Z,98888.80
2023-05-02T09:08:44.623Z,98884.68
2023-05-02T09:11:12.670Z,98883.98
2023-05-02T09:13:46.896Z,98885.44
2023-05-02T09:16:14.667Z,98892.02
2023-05-02T09:18:47.805Z,98891.15
2023-05-02T09:21:27.846Z,98891.73
2023-05-02T09:23:55.845Z,98887.73
2023-05-02T09:26:35.246Z,98885.45
2023-05-02T09:29:03.940Z,98881.71
2023-05-02T09:34:16.296Z,98880.27
2023-05-02T09:36:44.624Z,98880.58
2023-05-02T09:39:16.407Z,98880.67
2023-05-02T09:41:45.353Z,98881.92
2023-05-02T09:44:13.567Z,98881.58
2023-05-02T09:46:44.401Z,98883.23
2023-05-02T09:49:11.691Z,98880.59
2023-05-02T09:51:38.766Z,98878.46
2023-05-02T09:54:05.795Z,98884.91
2023-05-02T09:56:57.624Z,98881.16
2023-05-02T09:59:25.543Z,98877.41
2023-05-02T10:02:00.146Z,98877.16
2023-05-02T10:04:27.980Z,98878.62
2023-05-02T10:06:55.278Z,98877.83
2023-05-02T10:09:22.608Z,98874.85
2023-05-02T10:11:54.154Z,98873.98
2023-05-02T10:14:22.781Z,98876.95
2023-05-02T10:20:32.765Z,98873.50
2023-05-02T10:23:00.118Z,98873.48
2023-05-02T10:25:27.234Z,98870.39
2023-05-02T10:27:56.374Z,98871.41
2023-05-02T10:30:25.897Z,98871.91
2023-05-02T10:32:54.595Z,98864.83
2023-05-02T10:35:22.035Z,98863.74
2023-05-02T10:37:49.837Z,98860.81
2023-05-02T10:40:16.983Z,98858.95
2023-05-02T10:42:46.353Z,98857.35
2023-05-02T10:50:02.150Z,98854.33
2023-05-02T10:52:32.879Z,98854.04
2023-05-02T10:55:19.484Z,98850.00
2023-05-02T10:58:02.153Z,98847.64
2023-05-02T11:00:33.844Z,98848.51
2023-05-02T11:03:01.524Z,98849.34
2023-05-02T11:08:15.635Z,98845.49
2023-05-02T11:10:43.073Z,98842.99
2023-05-02T11:13:10.657Z,98839.20
2023-05-02T11:15:40.486Z,98840.67
2023-05-02T11:18:08.991Z,98840.73
2023-05-02T11:20:37.092Z,98836.84
2023-05-02T11:23:16.884Z,98835.08
2023-05-02T11:25:45.242Z,98835.67
2023-05-02T11:28:39.893Z,98837.75
2023-05-02T11:31:30.728Z,98836.48
2023-05-02T11:33:58.017Z,98834.45
2023-05-02T11:36:33.714Z,98829.02
2023-05-02T11:39:05.878Z,98830.23
2023-05-02T11:41:42.752Z,98826.34
2023-05-02T11:44:10.082Z,98829.27
2023-05-02T11:46:37.456Z,98826.10
2023-05-02T11:49:06.218Z,98822.39
2023-05-02T11:51:35.074Z,98817.83
2023-05-02T11:54:02.569Z,98817.17
2023-05-02T11:56:29.651Z,98811.80
2023-05-02T11:59:01.122Z,98810.60
2023-05-02T12:01:28.415Z,98808.20
2023-05-02T12:04:08.114Z,98804.44
2023-05-02T12:06:35.910Z,98796.65
2023-05-02T12:09:10.717Z,98795.38
2023-05-02T12:11:38.836Z,98796.67
2023-05-02T12:14:06.912Z,98795.23
2023-05-02T12:16:34.437Z,98797.27
2023-05-02T12:19:01.792Z,98795.55
2023-05-02T12:21:30.569Z,98789.50
2023-05-02T12:23:57.540Z,98788.25
2023-05-02T12:26:33.129Z,98789.77
2023-05-02T12:29:02.112Z,98790.16
2023-05-02T12:31:31.375Z,98790.88
2023-05-02T12:34:00.535Z,98787.00
2023-05-02T12:36:28.986Z,98780.94
2023-05-02T12:38:59.719Z,98785.39
2023-05-02T12:41:33.041Z,98783.34
2023-05-02T12:44:03.464Z,98780.88
2023-05-02T12:46:31.669Z,98784.23
2023-05-02T12:49:06.401Z,98778.37
2023-05-02T12:51:34.547Z,98777.75
2023-05-02T12:54:02.035Z,98772.17
2023-05-02T12:56:32.838Z,98773.99
2023-05-02T12:59:01.513Z,98768.64
2023-05-02T13:01:28.903Z,98771.09
2023-05-02T13:03:56.076Z,98770.48
2023-05-02T13:06:23.139Z,98764.69
2023-05-02T13:08:50.116Z,98766.61
2023-05-02T13:11:18.028Z,98768.70
2023-05-02T13:13:45.274Z,98768.95
2023-05-02T13:16:12.552Z,98770.55
2023-05-02T13:18:39.642Z,98769.07
2023-05-02T13:21:06.739Z,98764.61
2023-05-02T13:23:33.719Z,98761.45
2023-05-02T13:26:00.740Z,98763.38
2023-05-02T13:28:29.254Z,98766.41
2023-05-02T13:30:56.315Z,98763.23
2023-05-02T13:33:23.266Z,98763.36
2023-05-02T13:35:50.202Z,98767.61
2023-05-02T13:38:17.190Z,98764.73
2023-05-02T13:40:44.167Z,98765.41
2023-05-02T13:43:11.133Z,98770.80
2023-05-02T13:45:38.108Z,98762.29
2023-05-02T13:48:05.864Z,98762.75
2023-05-02T13:50:37.850Z,98761.94
2023-05-02T13:53:04.795Z,98762.14
2023-05-02T13:55:31.808Z,98762.78
2023-05-02T13:57:58.921Z,98753.44
2023-05-02T14:00:28.057Z,98750.47
2023-05-02T14:02:55.737Z,98748.60
2023-05-02T14:05:22.875Z,98744.79
2023-05-02T14:07:50.085Z,98745.61
2023-05-02T14:10:17.169Z,98743.25
2023-05-02T14:12:44.428Z,98741.27
2023-05-02T14:15:11.929Z,98742.24
2023-05-02T14:17:39.509Z,98734.98
2023-05-02T14:20:07.967Z,98736.66
2023-05-02T14:22:34.983Z,98733.33
2023-05-02T14:25:01.915Z,98730.61
2023-05-02T14:27:29.227Z,98732.47
2023-05-02T14:29:56.472Z,98734.89
2023-05-02T14:32:23.380Z,98733.67
2023-05-02T14:34:50.333Z,98727.61
2023-05-02T14:37:17.246Z,98730.88
2023-05-02T14:39:47.437Z,98729.33
2023-05-02T14:42:15.510Z,98728.87
2023-05-02T14:44:42.513Z,98728.38
2023-05-02T14:47:10.972Z,98725.88
2023-05-02T14:49:37.933Z,98730.74
2023-05-02T14:52:04.911Z,98729.72
2023-05-02T14:54:31.874Z,98728.02
2023-05-02T14:57:00.339Z,98724.28
2023-05-02T14:59:30.717Z,98727.02
2023-05-02T15:01:57.815Z,98725.86
2023-05-02T15:04:27.466Z,98725.51
2023-05-02T15:06:56.214Z,98723.80
2023-05-02T15:09:26.679Z,98723.72
2023-05-02T15:11:53.879Z,98719.64
2023-05-02T15:14:21.107Z,98716.80
2023-05-02T15:16:48.288Z,98719.00
2023-05-02T15:19:15.318Z,98717.08
2023-05-02T15:21:42.468Z,98710.74
2023-05-02T15:24:10.728Z,98715.29
2023-05-02T15:26:40.492Z,98720.68
2023-05-02T15:29:07.634Z,98716.70
2023-05-02T15:31:35.085Z,98718.66
2023-05-02T15:34:02.045Z,98716.89
2023-05-02T15:36:30.140Z,98718.89
2023-05-02T15:38:57.266Z,98718.58
2023-05-02T15:41:27.548Z,98716.30
2023-05-02T15:43:54.495Z,98710.38
2023-05-02T15:46:21.547Z,98709.04
2023-05-02T15:48:48.692Z,98711.71
2023-05-02T15:51:15.871Z,98707.15
2023-05-02T15:53:44.427Z,98710.87
2023-05-02T15:56:11.805Z,98707.54
2023-05-02T15:58:39.099Z,98708.35
2023-05-02T16:01:06.395Z,98709.09
2023-05-02T16:03:34.315Z,98707.90
2023-05-02T16:06:01.659Z,98708.80
2023-05-02T16:08:28.741Z,98705.57
2023-05-02T16:10:56.494Z,98708.34
2023-05-02T16:13:23.797Z,98707.79
2023-05-02T16:15:53.642Z,98706.83
2023-05-02T16:18:28.792Z,98711.95
2023-05-02T16:20:57.187Z,98711.84
2023-05-02T16:23:26.010Z,98707.83
2023-05-02T16:25:59.759Z,98709.45
2023-05-02T16:28:26.810Z,98709.08
2023-05-02T16:30:53.848Z,98706.70
2023-05-02T16:33:21.886Z,98708.68
2023-05-02T16:35:49.014Z,98706.17
2023-05-02T16:38:16.325Z,98710.66
2023-05-02T16:40:43.900Z,98715.50
2023-05-02T16:43:10.842Z,98714.50
2023-05-02T16:45:38.792Z,98715.27
2023-05-02T16:48:06.816Z,98716.81
2023-05-02T16:50:33.938Z,98711.55
2023-05-02T16:53:01.003Z,98716.42
2023-05-02T16:55:27.926Z,98718.36
2023-05-02T16:57:54.998Z,98718.91
2023-05-02T17:00:22.096Z,98725.08
2023-05-02T17:02:49.145Z,98726.26
2023-05-02T17:05:17.228Z,98726.14
2023-05-02T17:07:44.470Z,98728.20
2023-05-02T17:10:12.728Z,98730.83
2023-05-02T17:12:40.104Z,98730.20
2023-05-02T17:15:08.186Z,98730.20
2023-05-02T17:17:35.231Z,98721.52
2023-05-02T17:20:02.610Z,98731.00
2023-05-02T17:22:30.916Z,98733.85
2023-05-02T17:24:57.892Z,98734.80
2023-05-02T17:27:24.891Z,98733.83
2023-05-02T17:29:51.801Z,98737.02
2023-05-02T17:32:18.809Z,98734.59
2023-05-02T17:34:45.868Z,98736.92
2023-05-02T17:37:12.879Z,98743.36
2023-05-02T17:39:39.809Z,98747.31
2023-05-02T17:42:07.229Z,98747.81
2023-05-02T17:44:36.981Z,98749.32
2023-05-02T17:47:04.504Z,98754.88
2023-05-02T17:49:32.231Z,98756.11
2023-05-02T17:51:59.182Z,98753.23
2023-05-02T17:54:26.119Z,98754.20
2023-05-02T17:56:53.515Z,98756.65
2023-05-02T17:59:20.754Z,98755.05
2023-05-02T18:01:48.360Z,98760.23
2023-05-02T18:04:16.206Z,98760.48
2023-05-02T18:06:43.280Z,98762.39
2023-05-02T18:09:10.238Z,98763.73
2023-05-02T18:11:37.751Z,98766.41
2023-05-02T18:14:06.314Z,98769.02
2023-05-02T18:16:34.647Z,98769.26
2023-05-02T18:19:01.788Z,98767.04
2023-05-02T18:21:29.309Z,98768.16
2023-05-02T18:23:59.270Z,98770.89
2023-05-02T18:26:26.856Z,98776.39
2023-05-02T18:28:53.811Z,98779.78
2023-05-02T18:31:21.370Z,98782.14
2023-05-02T18:33:48.916Z,98782.30
2023-05-02T18:36:20.490Z,98782.98
2023-05-02T18:38:47.556Z,98785.29
2023-05-02T18:41:14.489Z,98783.47
2023-05-02T18:43:41.424Z,98786.33
2023-05-02T18:46:08.632Z,98782.77
2023-05-02T18:48:36.405Z,98787.43
2023-05-02T18:51:03.509Z,98787.91
2023-05-02T18:53:31.242Z,98788.05
2023-05-02T18:55:58.244Z,98791.20
2023-05-02T18:58:25.131Z,98795.77
2023-05-02T19:00:52.048Z,98794.96
2023-05-02T19:03:20.333Z,98795.05
2023-05-02T19:05:47.383Z,98798.41
2023-05-02T19:08:14.774Z,98794.36
2023-05-02T19:10:41.990Z,98794.89
2023-05-02T19:13:09.214Z,98799.16
2023-05-02T19:15:36.473Z,98797.56
2023-05-02T19:18:03.758Z,98800.09
2023-05-02T19:20:31.293Z,98801.02
2023-05-02T19:23:15.310Z,98798.68
2023-05-02T19:25:46.644Z,98802.48
2023-05-02T19:28:15.781Z,98797.05
2023-05-02T19:30:43.574Z,98796.88
2023-05-02T19:33:11.005Z,98801.14
2023-05-02T19:35:38.226Z,98796.72
2023-05-02T19:38:05.385Z,98802.36
2023-05-02T19:40:33.704Z,98804.48
2023-05-02T19:43:00.752Z,98803.38
2023-05-02T19:45:27.914Z,98805.34
2023-05-02T19:47:54.880Z,98800.33
2023-05-02T19:50:21.794Z,98801.59
2023-05-02T19:52:50.340Z,98798.67
2023-05-02T19:55:18.577Z,98801.32
2023-05-02T19:57:45.664Z,98797.77
2023-05-02T20:00:14.159Z,98799.45
2023-05-02T20:02:42.266Z,98795.09
2023-05-02T20:05:09.727Z,98797.58
2023-05-02T20:07:37.660Z,98799.27
2023-05-02T20:10:06.767Z,98798.95
2023-05-02T20:12:34.228Z,98796.15
2023-05-02T20:15:01.352Z,98796.50
2023-05-02T20:17:29.410Z,98797.38
2023-05-02T20:19:57.513Z,98796.76
2023-05-02T20:22:24.507Z,98793.89
2023-05-02T20:24:51.473Z,98792.71
2023-05-02T20:27:18.356Z,98790.16
2023-05-02T20:29:45.280Z,98793.79
2023-05-02T20:32:12.203Z,98798.64
2023-05-02T20:34:40.409Z,98795.70
2023-05-02T20:37:07.379Z,98796.34
2023-05-02T20:39:34.893Z,98795.63
2023-05-02T20:42:01.930Z,98794.39
2023-05-02T20:44:33.565Z,98796.61
2023-05-02T20:47:00.891Z,98798.05
2023-05-02T20:49:32.101Z,98796.13
2023-05-02T20:52:05.604Z,98799.08
2023-05-02T20:54:32.584Z,98799.36
2023-05-02T20:56:59.514Z,98798.98
2023-05-02T20:59:26.867Z,98802.05
2023-05-02T21:01:53.880Z,98800.11
2023-05-02T21:04:20.983Z,98801.73
2023-05-02T21:06:49.014Z,98798.25
2023-05-02T21:09:16.974Z,98797.14
2023-05-02T21:11:44.329Z,98796.28
2023-05-02T21:14:11.894Z,98797.41
2023-05-02T21:16:39.545Z,98800.89
2023-05-02T21:19:06.474Z,98798.69
2023-05-02T21:21:33.726Z,98802.91
2023-05-02T21:24:01.499Z,98800.24
2023-05-02T21:26:28.611Z,98801.04
2023-05-02T21:28:55.646Z,98807.16
2023-05-02T21:31:22.726Z,98809.20
2023-05-02T21:33:49.662Z,98809.84
2023-05-02T21:36:16.618Z,98810.42
2023-05-02T21:38:43.830Z,98812.85
2023-05-02T21:41:10.914Z,98810.37
2023-05-02T21:43:40.947Z,98810.58
2023-05-02T21:46:10.731Z,98807.17
2023-05-02T21:48:38.396Z,98811.48
2023-05-02T21:51:10.048Z,98816.14
2023-05-02T21:53:37.382Z,98822.73
2023-05-02T21:56:05.935Z,98831.90
2023-05-02T21:58:32.940Z,98838.90
2023-05-02T22:01:00.879Z,98841.61
2023-05-02T22:03:28.318Z,98845.24
2023-05-02T22:05:56.168Z,98856.75
2023-05-02T22:08:24.133Z,98866.84
2023-05-02T22:10:51.639Z,98865.68
2023-05-02T22:13:18.853Z,98861.06
2023-05-02T22:15:46.576Z,98861.95
2023-05-02T22:18:14.272Z,98871.98
2023-05-02T22:20:42.341Z,98873.03
2023-05-02T22:23:09.694Z,98868.59
2023-05-02T22:25:39.098Z,98871.42
2023-05-02T22:28:07.125Z,98872.32
2023-05-02T22:30:34.471Z,98868.90
2023-05-02T22:33:02.344Z,98871.06
2023-05-02T22:35:29.613Z,98878.14
2023-05-02T22:37:59.645Z,98876.62
2023-05-02T22:40:26.742Z,98879.50
2023-05-02T22:42:53.707Z,98880.71
2023-05-02T22:45:20.659Z,98878.16
2023-05-02T22:47:47.612Z,98875.00
2023-05-02T22:50:14.593Z,98877.66
2023-05-02T22:52:42.206Z,98886.25
2023-05-02T22:55:09.657Z,98884.39
2023-05-02T22:57:37.209Z,98881.54
2023-05-02T23:00:09.335Z,98874.93
2023-05-02T23:02:37.603Z,98878.23
2023-05-02T23:05:05.210Z,98875.55
2023-05-02T23:07:32.501Z,98869.59
2023-05-02T23:09:59.489Z,98866.06
2023-05-02T23:12:27.663Z,98867.46
2023-05-02T23:14:54.994Z,98867.61
2023-05-02T23:17:22.055Z,98874.94
2023-05-02T23:19:49.988Z,98874.06
2023-05-02T23:22:17.146Z,98874.77
2023-05-02T23:24:46.298Z,98870.45
2023-05-02T23:27:13.591Z,98871.93
2023-05-02T23:29:40.736Z,98870.34
2023-05-02T23:32:08.174Z,98880.98
2023-05-02T23:34:38.331Z,98890.84
2023-05-02T23:37:07.081Z,98891.11
2023-05-02T23:39:34.860Z,98891.23
2023-05-02T23:42:03.857Z,98890.52
2023-05-02T23:44:32.514Z,98889.11
2023-05-02T23:46:59.760Z,98888.93
2023-05-02T23:49:27.022Z,98884.37
2023-05-02T23:51:53.944Z,98889.41
2023-05-02T23:54:20.919Z,98890.02
2023-05-02T23:56:47.943Z,98880.36
2023-05-02T23:59:15.292Z,98873.92
